Pequea, Pennsylvania
Current Conditions -  °F | °C
As of 9:53 AM on Friday 19 Dec 2014 (Local Time) from KLNS Reporting Station
Overcast Overcast  
Wind Chill: 28°   Ceiling: 3500
Heat Index: 36°   Visibility: 10mi
Dew Point: 24°   Wind: 10mph
Humidity: 62%   Direction: 310°NW
Pressure: 30.11"   Gusts: NA
Location:  39.89°N, 76.37°W
Report Text: KLNS 191453Z 31009KT 10SM OVC035 02/M04 A3011 RMK AO2 SLP199 T00221044 52014
Loading
Personal Weather Stations






























Interactive Weather Map New forecast layout! Learn more

10-Day Weather Forecast

Advertisements
Track Severe Weather on mobile